createdAt,value
2019-05-16T00:02:18.603Z,6.00
2019-05-16T00:04:48.538Z,6.00
2019-05-16T00:07:19.135Z,6.30
2019-05-16T00:09:49.288Z,6.30
2019-05-16T00:12:19.114Z,6.40
2019-05-16T00:14:49.463Z,6.40
2019-05-16T00:17:20.079Z,6.50
2019-05-16T00:19:51.142Z,6.40
2019-05-16T00:22:21.779Z,6.20
2019-05-16T00:24:52.197Z,6.20
2019-05-16T00:27:22.327Z,6.20
2019-05-16T00:29:52.703Z,6.20
2019-05-16T00:32:22.789Z,6.10
2019-05-16T00:34:53.395Z,6.00
2019-05-16T00:37:23.270Z,6.20
2019-05-16T00:39:53.117Z,6.10
2019-05-16T00:42:23.232Z,6.10
2019-05-16T00:44:53.049Z,6.00
2019-05-16T00:47:22.966Z,5.90
2019-05-16T00:49:53.080Z,5.90
2019-05-16T00:52:22.918Z,5.80
2019-05-16T00:54:53.521Z,5.80
2019-05-16T00:57:23.750Z,5.80
2019-05-16T00:59:53.946Z,5.80
2019-05-16T01:02:24.777Z,5.90
2019-05-16T01:05:14.572Z,5.90
2019-05-16T01:07:45.430Z,5.80
2019-05-16T01:10:15.267Z,5.70
2019-05-16T01:12:45.378Z,5.70
2019-05-16T01:15:15.729Z,5.70
2019-05-16T01:17:48.170Z,5.70
2019-05-16T01:20:19.245Z,5.70
2019-05-16T01:22:49.582Z,5.60
2019-05-16T01:25:19.691Z,5.60
2019-05-16T01:27:49.630Z,5.50
2019-05-16T01:30:19.580Z,5.40
2019-05-16T01:32:49.477Z,5.70
2019-05-16T01:35:19.310Z,5.90
2019-05-16T01:37:49.160Z,5.80
2019-05-16T01:40:38.714Z,5.80
2019-05-16T01:43:08.717Z,5.70
2019-05-16T01:45:38.638Z,5.70
2019-05-16T01:48:08.474Z,5.60
2019-05-16T01:50:38.877Z,5.50
2019-05-16T01:53:08.847Z,5.60
2019-05-16T01:55:40.762Z,5.50
2019-05-16T01:58:10.580Z,5.50
2019-05-16T02:00:52.532Z,5.60
2019-05-16T02:03:12.957Z,5.60
2019-05-16T02:05:42.751Z,5.70
2019-05-16T02:08:12.583Z,5.80
2019-05-16T02:10:42.591Z,5.80
2019-05-16T02:13:12.336Z,5.60
2019-05-16T02:15:42.147Z,5.50
2019-05-16T02:18:12.169Z,5.30
2019-05-16T02:20:41.993Z,5.30
2019-05-16T02:23:13.000Z,5.20
2019-05-16T02:25:42.831Z,5.20
2019-05-16T02:28:12.902Z,5.10
2019-05-16T02:30:43.006Z,5.00
2019-05-16T02:33:12.749Z,5.10
2019-05-16T02:35:42.625Z,4.90
2019-05-16T02:38:12.444Z,4.80
2019-05-16T02:40:42.345Z,4.90
2019-05-16T02:43:12.645Z,5.00
2019-05-16T02:45:42.860Z,5.10
2019-05-16T02:48:12.840Z,5.00
2019-05-16T02:50:42.851Z,4.90
2019-05-16T02:53:13.035Z,4.90
2019-05-16T02:55:43.158Z,4.90
2019-05-16T02:58:12.935Z,4.80
2019-05-16T03:00:43.158Z,4.70
2019-05-16T03:03:12.960Z,4.60
2019-05-16T03:05:43.279Z,4.50
2019-05-16T03:08:13.490Z,4.60
2019-05-16T03:10:43.658Z,4.60
2019-05-16T03:13:15.232Z,4.50
2019-05-16T03:15:50.818Z,4.40
2019-05-16T03:18:22.129Z,4.30
2019-05-16T03:20:54.898Z,4.30
2019-05-16T03:23:24.616Z,4.20
2019-05-16T03:25:54.347Z,4.30
2019-05-16T03:28:24.076Z,4.20
2019-05-16T03:30:55.056Z,4.20
2019-05-16T03:33:33.070Z,4.20
2019-05-16T03:35:56.718Z,4.20
2019-05-16T03:38:26.523Z,4.20
2019-05-16T03:40:56.568Z,4.10
2019-05-16T03:43:26.851Z,4.00
2019-05-16T03:45:56.606Z,3.90
2019-05-16T03:48:27.220Z,4.00
2019-05-16T03:51:00.633Z,3.90
2019-05-16T03:53:31.454Z,4.00
2019-05-16T03:56:01.890Z,4.00
2019-05-16T03:58:32.040Z,4.10
2019-05-16T04:01:02.688Z,4.20
2019-05-16T04:03:33.461Z,4.20
2019-05-16T04:06:03.428Z,4.30
2019-05-16T04:08:33.688Z,4.30
2019-05-16T04:11:03.572Z,4.40
2019-05-16T04:13:34.161Z,4.30
2019-05-16T04:16:03.996Z,4.30
2019-05-16T04:18:33.866Z,4.40
2019-05-16T04:21:03.691Z,4.50
2019-05-16T04:23:33.420Z,4.50
2019-05-16T04:26:03.279Z,4.50
2019-05-16T04:28:33.035Z,4.50
2019-05-16T04:31:03.165Z,4.40
2019-05-16T04:33:33.076Z,4.40
2019-05-16T04:36:03.194Z,4.30
2019-05-16T04:38:40.668Z,4.30
2019-05-16T04:41:05.281Z,4.30
2019-05-16T04:43:35.138Z,4.30
2019-05-16T04:46:05.057Z,4.30
2019-05-16T04:48:35.318Z,4.30
2019-05-16T04:51:05.140Z,4.20
2019-05-16T04:53:35.300Z,4.20
2019-05-16T04:56:05.118Z,4.30
2019-05-16T04:58:34.951Z,4.40
2019-05-16T05:01:04.770Z,4.50
2019-05-16T05:03:34.612Z,4.50
2019-05-16T05:06:04.489Z,4.60
2019-05-16T05:08:49.303Z,4.60
2019-05-16T05:11:05.729Z,4.70
2019-05-16T05:13:35.421Z,4.90
2019-05-16T05:16:06.035Z,5.00
2019-05-16T05:18:35.779Z,5.10
2019-05-16T05:21:05.895Z,5.20
2019-05-16T05:23:35.742Z,5.20
2019-05-16T05:26:06.075Z,5.20
2019-05-16T05:28:36.050Z,5.20
2019-05-16T05:31:05.854Z,5.20
2019-05-16T05:33:35.674Z,5.20
2019-05-16T05:36:05.642Z,5.20
2019-05-16T05:38:35.653Z,5.20
2019-05-16T05:41:06.003Z,5.30
2019-05-16T05:43:36.146Z,5.30
2019-05-16T05:46:06.266Z,5.30
2019-05-16T05:48:36.292Z,5.50
2019-05-16T05:51:06.419Z,5.50
2019-05-16T05:53:36.709Z,5.60
2019-05-16T05:56:06.785Z,5.80
2019-05-16T05:58:37.059Z,6.10
2019-05-16T06:01:10.862Z,6.30
2019-05-16T06:03:39.969Z,6.50
2019-05-16T06:06:10.538Z,6.70
2019-05-16T06:08:41.079Z,6.90
2019-05-16T06:11:10.991Z,7.20
2019-05-16T06:13:40.806Z,7.30
2019-05-16T06:16:11.015Z,7.50
2019-05-16T06:18:40.967Z,7.80
2019-05-16T06:21:11.590Z,7.90
2019-05-16T06:23:41.808Z,8.20
2019-05-16T06:26:12.420Z,8.40
2019-05-16T06:28:42.505Z,8.50
2019-05-16T06:31:14.387Z,8.60
2019-05-16T06:33:43.963Z,8.80
2019-05-16T06:36:13.824Z,8.90
2019-05-16T06:38:43.706Z,9.00
2019-05-16T06:41:13.538Z,9.20
2019-05-16T06:43:43.457Z,9.50
2019-05-16T06:46:13.305Z,9.80
2019-05-16T06:48:43.055Z,10.40
2019-05-16T06:51:12.959Z,10.70
2019-05-16T06:53:42.954Z,11.30
2019-05-16T06:56:13.351Z,13.10
2019-05-16T06:58:47.619Z,15.30
2019-05-16T07:01:15.319Z,15.90
2019-05-16T07:03:45.191Z,15.40
2019-05-16T07:06:37.826Z,14.10
2019-05-16T07:08:46.594Z,13.60
2019-05-16T07:11:16.499Z,13.30
2019-05-16T07:13:46.376Z,13.40
2019-05-16T07:16:35.556Z,13.20
2019-05-16T07:19:05.430Z,13.60
2019-05-16T07:21:35.151Z,15.40
2019-05-16T07:24:05.011Z,17.00
2019-05-16T07:26:35.082Z,17.30
2019-05-16T07:29:16.286Z,19.70
2019-05-16T07:31:46.118Z,20.10
2019-05-16T07:34:16.310Z,20.80
2019-05-16T07:36:46.500Z,21.30
2019-05-16T07:39:16.857Z,21.10
2019-05-16T07:41:46.850Z,21.10
2019-05-16T07:44:16.701Z,20.80
2019-05-16T07:46:46.463Z,20.70
2019-05-16T07:49:16.877Z,21.80
2019-05-16T07:51:49.860Z,22.60
2019-05-16T07:54:21.270Z,21.90
2019-05-16T07:56:58.551Z,22.70
2019-05-16T07:59:22.554Z,23.40
2019-05-16T08:01:54.151Z,23.10
2019-05-16T08:04:24.905Z,22.80
2019-05-16T08:06:55.240Z,21.50
2019-05-16T08:09:25.685Z,22.10
2019-05-16T08:11:55.767Z,22.60
2019-05-16T08:14:25.836Z,22.60
2019-05-16T08:16:55.993Z,23.30
2019-05-16T08:19:26.091Z,24.80
2019-05-16T08:21:55.845Z,27.30
2019-05-16T08:24:25.956Z,27.70
2019-05-16T08:26:56.122Z,29.30
2019-05-16T08:29:26.345Z,27.60
2019-05-16T08:31:56.429Z,25.60
2019-05-16T08:34:26.534Z,25.60
2019-05-16T08:36:56.565Z,27.00
2019-05-16T08:39:26.638Z,27.00
2019-05-16T08:42:04.310Z,27.80
2019-05-16T08:44:31.677Z,28.50
2019-05-16T08:47:06.219Z,28.00
2019-05-16T08:49:32.517Z,28.60
2019-05-16T08:52:02.903Z,28.70
2019-05-16T08:54:33.641Z,29.00
2019-05-16T08:57:21.729Z,26.20
2019-05-16T08:59:34.981Z,26.10
2019-05-16T09:02:04.811Z,26.80
2019-05-16T09:04:34.713Z,26.70
2019-05-16T09:07:04.566Z,27.40
2019-05-16T09:09:44.275Z,29.30
2019-05-16T09:12:07.863Z,28.80
2019-05-16T09:14:39.048Z,26.00
2019-05-16T09:17:09.134Z,24.30
2019-05-16T09:19:38.941Z,24.50
2019-05-16T09:22:08.802Z,24.40
2019-05-16T09:24:38.639Z,25.30
2019-05-16T09:27:12.081Z,24.50
2019-05-16T09:29:40.300Z,24.50
2019-05-16T09:32:16.923Z,23.90
2019-05-16T09:34:42.474Z,23.30
2019-05-16T09:37:12.311Z,23.20
2019-05-16T09:39:42.475Z,23.30
2019-05-16T09:42:12.510Z,23.40
2019-05-16T09:44:42.927Z,22.90
2019-05-16T09:47:13.092Z,22.00
2019-05-16T09:49:43.186Z,21.60
2019-05-16T09:52:13.663Z,20.90
2019-05-16T09:54:43.677Z,21.00
2019-05-16T09:57:13.749Z,21.10
2019-05-16T09:59:46.384Z,21.50
2019-05-16T10:02:17.603Z,20.90
2019-05-16T10:04:47.697Z,21.10
2019-05-16T10:07:18.139Z,20.60
2019-05-16T10:09:50.177Z,20.70
2019-05-16T10:12:19.983Z,20.60
2019-05-16T10:14:49.825Z,20.40
2019-05-16T10:17:20.243Z,20.40
2019-05-16T10:19:50.578Z,19.60
2019-05-16T10:22:20.935Z,19.40
2019-05-16T10:24:51.020Z,19.30
2019-05-16T10:27:20.831Z,19.20
2019-05-16T10:29:53.723Z,18.80
2019-05-16T10:32:23.546Z,18.50
2019-05-16T10:34:53.338Z,18.90
2019-05-16T10:37:23.163Z,18.60
2019-05-16T10:39:53.095Z,18.40
2019-05-16T10:42:28.462Z,18.20
2019-05-16T10:44:57.465Z,18.00
2019-05-16T10:47:31.023Z,17.90
2019-05-16T10:49:58.619Z,17.90
2019-05-16T10:52:28.768Z,17.40
2019-05-16T10:55:02.278Z,17.00
2019-05-16T10:57:30.486Z,17.10
2019-05-16T11:00:08.875Z,17.30
2019-05-16T11:02:32.592Z,17.10
2019-05-16T11:05:22.644Z,17.40
2019-05-16T11:07:36.903Z,16.90
2019-05-16T11:10:07.382Z,16.40
2019-05-16T11:12:47.490Z,16.10
2019-05-16T11:15:11.618Z,16.40
2019-05-16T11:17:42.354Z,16.40
2019-05-16T11:20:12.587Z,16.70
2019-05-16T11:22:42.501Z,17.00
2019-05-16T11:25:24.051Z,17.30
2019-05-16T11:27:46.714Z,17.10
2019-05-16T11:30:18.070Z,17.70
2019-05-16T11:32:48.514Z,18.20
2019-05-16T11:35:18.696Z,18.00
2019-05-16T11:37:48.573Z,17.80
2019-05-16T11:40:19.749Z,18.10
2019-05-16T11:43:05.551Z,18.20
2019-05-16T11:45:22.148Z,18.30
2019-05-16T11:47:51.989Z,18.30
2019-05-16T11:50:21.898Z,17.80
2019-05-16T11:52:52.566Z,18.00
2019-05-16T11:55:22.799Z,17.70
2019-05-16T11:57:53.135Z,17.60
2019-05-16T12:00:23.050Z,17.70
2019-05-16T12:02:53.068Z,17.60
2019-05-16T12:05:23.455Z,17.50
2019-05-16T12:08:12.447Z,17.50
2019-05-16T12:10:42.442Z,17.70
2019-05-16T12:13:27.238Z,17.60
2019-05-16T12:15:44.074Z,17.80
2019-05-16T12:18:13.951Z,17.90
2019-05-16T12:20:43.811Z,17.90
2019-05-16T12:23:13.560Z,17.80
2019-05-16T12:25:43.372Z,17.80
2019-05-16T12:28:13.495Z,18.40
2019-05-16T12:30:43.362Z,18.30
2019-05-16T12:33:14.887Z,18.00
2019-05-16T12:35:47.232Z,18.20
2019-05-16T12:38:17.063Z,18.10
2019-05-16T12:40:48.062Z,18.00
2019-05-16T12:43:18.308Z,17.80
2019-05-16T12:45:48.175Z,17.90
2019-05-16T12:48:20.482Z,18.00
2019-05-16T12:50:49.663Z,18.20
2019-05-16T12:53:23.530Z,18.20
2019-05-16T12:55:51.828Z,18.20
2019-05-16T12:58:26.083Z,18.20
2019-05-16T13:00:57.607Z,18.30
2019-05-16T13:03:27.730Z,18.20
2019-05-16T13:05:57.239Z,17.80
2019-05-16T13:08:27.250Z,17.80
2019-05-16T13:10:57.918Z,17.70
2019-05-16T13:13:28.168Z,18.00
2019-05-16T13:15:58.403Z,17.90
2019-05-16T13:18:28.146Z,17.80
2019-05-16T13:20:58.568Z,17.90
2019-05-16T13:23:28.899Z,17.90
2019-05-16T13:25:58.756Z,17.60
2019-05-16T13:28:28.554Z,17.50
2019-05-16T13:30:58.932Z,17.60
2019-05-16T13:33:28.965Z,17.40
2019-05-16T13:35:59.371Z,17.40
2019-05-16T13:38:29.712Z,17.40
2019-05-16T13:40:59.896Z,17.10
2019-05-16T13:43:30.553Z,17.10
2019-05-16T13:46:00.493Z,17.10
2019-05-16T13:48:30.770Z,17.10
2019-05-16T13:51:13.842Z,17.10
2019-05-16T13:53:33.006Z,17.30
2019-05-16T13:56:06.396Z,17.60
2019-05-16T13:58:37.312Z,17.30
2019-05-16T14:01:07.907Z,17.10
2019-05-16T14:03:38.123Z,17.30
2019-05-16T14:06:07.977Z,17.50
2019-05-16T14:08:37.807Z,17.80
2019-05-16T14:11:09.789Z,17.60
2019-05-16T14:13:39.990Z,17.80
2019-05-16T14:16:10.484Z,17.80
2019-05-16T14:18:40.563Z,17.60
2019-05-16T14:21:10.520Z,18.20
2019-05-16T14:23:40.409Z,18.70
2019-05-16T14:26:11.439Z,18.90
2019-05-16T14:28:44.463Z,19.00
2019-05-16T14:31:14.179Z,19.00
2019-05-16T14:33:44.273Z,18.60
2019-05-16T14:36:14.211Z,18.60
2019-05-16T14:38:46.815Z,18.80
2019-05-16T14:41:17.365Z,18.70
2019-05-16T14:43:47.498Z,18.70
2019-05-16T14:46:18.415Z,18.90
2019-05-16T14:48:48.394Z,18.60
2019-05-16T14:51:18.342Z,18.40
2019-05-16T14:53:48.794Z,18.40
2019-05-16T14:56:18.886Z,18.50
2019-05-16T14:58:48.923Z,18.50
2019-05-16T15:01:18.793Z,18.60
2019-05-16T15:03:48.612Z,18.70
2019-05-16T15:06:18.521Z,18.40
2019-05-16T15:08:48.361Z,18.30
2019-05-16T15:11:18.230Z,18.20
2019-05-16T15:13:48.380Z,18.20
2019-05-16T15:16:18.267Z,17.80
2019-05-16T15:18:48.254Z,17.80
2019-05-16T15:21:18.121Z,17.80
2019-05-16T15:23:48.008Z,17.60
2019-05-16T15:26:18.378Z,17.50
2019-05-16T15:28:51.164Z,17.30
2019-05-16T15:31:20.850Z,17.20
2019-05-16T15:33:51.414Z,16.80
2019-05-16T15:36:21.516Z,16.70
2019-05-16T15:38:51.370Z,16.80
2019-05-16T15:41:21.265Z,16.70
2019-05-16T15:43:51.470Z,16.70
2019-05-16T15:46:21.371Z,16.60
2019-05-16T15:48:51.334Z,16.30
2019-05-16T15:51:22.630Z,16.20
2019-05-16T15:53:53.225Z,16.40
2019-05-16T15:56:23.059Z,16.40
2019-05-16T15:58:52.952Z,16.40
2019-05-16T16:01:22.916Z,16.60
2019-05-16T16:03:53.082Z,16.60
2019-05-16T16:06:22.771Z,16.60
2019-05-16T16:08:53.631Z,16.50
2019-05-16T16:11:23.369Z,16.40
2019-05-16T16:13:53.190Z,16.10
2019-05-16T16:16:23.054Z,15.70
2019-05-16T16:18:52.861Z,15.40
2019-05-16T16:21:22.874Z,15.30
2019-05-16T16:23:53.000Z,15.20
2019-05-16T16:26:22.828Z,15.20
2019-05-16T16:28:52.653Z,15.40
2019-05-16T16:31:22.485Z,15.30
2019-05-16T16:33:52.819Z,15.30
2019-05-16T16:36:23.325Z,15.30
2019-05-16T16:38:53.194Z,15.30
2019-05-16T16:41:23.161Z,15.30
2019-05-16T16:43:53.515Z,15.40
2019-05-16T16:46:23.526Z,15.30
2019-05-16T16:48:56.322Z,15.30
2019-05-16T16:51:26.931Z,15.20
2019-05-16T16:53:57.738Z,15.00
2019-05-16T16:56:28.067Z,14.80
2019-05-16T16:58:57.827Z,14.80
2019-05-16T17:01:27.693Z,14.70
2019-05-16T17:03:58.360Z,14.60
2019-05-16T17:06:28.438Z,14.60
2019-05-16T17:08:58.803Z,14.70
2019-05-16T17:11:28.855Z,14.60
2019-05-16T17:13:58.727Z,14.40
2019-05-16T17:16:29.204Z,14.30
2019-05-16T17:18:59.489Z,14.30
2019-05-16T17:21:29.272Z,14.40
2019-05-16T17:23:59.413Z,14.40
2019-05-16T17:26:29.171Z,14.20
2019-05-16T17:28:59.435Z,14.10
2019-05-16T17:31:29.524Z,14.20
2019-05-16T17:33:59.529Z,14.20
2019-05-16T17:36:30.216Z,14.20
2019-05-16T17:39:00.042Z,14.20
2019-05-16T17:41:30.150Z,14.30
2019-05-16T17:44:00.600Z,14.20
2019-05-16T17:46:36.838Z,14.10
2019-05-16T17:49:02.990Z,14.00
2019-05-16T17:51:33.313Z,14.00
2019-05-16T17:54:03.150Z,14.00
2019-05-16T17:56:32.885Z,14.00
2019-05-16T17:59:02.891Z,14.10
2019-05-16T18:01:32.702Z,14.00
2019-05-16T18:04:02.803Z,14.00
2019-05-16T18:06:32.646Z,14.00
2019-05-16T18:09:06.459Z,13.90
2019-05-16T18:11:37.432Z,13.90
2019-05-16T18:14:07.869Z,14.00
2019-05-16T18:16:52.095Z,13.90
2019-05-16T18:19:09.333Z,13.90
2019-05-16T18:21:39.795Z,13.90
2019-05-16T18:24:09.888Z,13.80
2019-05-16T18:26:40.451Z,13.90
2019-05-16T18:29:10.591Z,13.90
2019-05-16T18:31:40.999Z,13.80
2019-05-16T18:34:11.865Z,13.80
2019-05-16T18:36:41.909Z,13.70
2019-05-16T18:39:11.990Z,13.60
2019-05-16T18:41:41.846Z,13.60
2019-05-16T18:44:12.250Z,13.50
2019-05-16T18:46:42.308Z,13.50
2019-05-16T18:49:12.148Z,13.60
2019-05-16T18:51:42.478Z,13.50
2019-05-16T18:54:12.306Z,13.50
2019-05-16T18:56:42.381Z,13.40
2019-05-16T18:59:12.204Z,13.40
2019-05-16T19:01:42.534Z,13.40
2019-05-16T19:04:13.413Z,13.40
2019-05-16T19:06:43.378Z,13.40
2019-05-16T19:09:13.465Z,13.40
2019-05-16T19:11:43.284Z,13.40
2019-05-16T19:14:13.122Z,13.30
2019-05-16T19:16:43.190Z,13.40
2019-05-16T19:19:12.978Z,13.40
2019-05-16T19:21:42.837Z,13.40
2019-05-16T19:24:13.307Z,13.30
2019-05-16T19:26:43.005Z,13.30
2019-05-16T19:29:12.820Z,13.20
2019-05-16T19:31:43.257Z,13.10
2019-05-16T19:34:13.581Z,13.10
2019-05-16T19:36:43.665Z,13.00
2019-05-16T19:39:13.636Z,13.00
2019-05-16T19:41:43.468Z,13.00
2019-05-16T19:44:13.277Z,12.90
2019-05-16T19:46:43.060Z,12.90
2019-05-16T19:49:16.490Z,12.90
2019-05-16T19:51:49.077Z,12.90
2019-05-16T19:54:19.132Z,12.80
2019-05-16T19:56:49.148Z,12.70
2019-05-16T19:59:19.619Z,12.70
2019-05-16T20:01:49.371Z,12.70
2019-05-16T20:04:19.415Z,12.70
2019-05-16T20:06:49.161Z,12.70
2019-05-16T20:09:19.803Z,12.70
2019-05-16T20:11:49.875Z,12.70
2019-05-16T20:14:19.831Z,12.70
2019-05-16T20:16:50.131Z,12.70
2019-05-16T20:19:20.450Z,12.70
2019-05-16T20:21:50.276Z,12.60
2019-05-16T20:24:20.087Z,12.60
2019-05-16T20:26:49.950Z,12.60
2019-05-16T20:29:19.776Z,12.50
2019-05-16T20:31:50.170Z,12.40
2019-05-16T20:34:20.572Z,12.40
2019-05-16T20:36:51.259Z,12.30
2019-05-16T20:39:21.590Z,12.30
2019-05-16T20:41:51.454Z,12.10
2019-05-16T20:44:21.275Z,12.10
2019-05-16T20:46:51.094Z,11.90
2019-05-16T20:49:20.844Z,11.90
2019-05-16T20:51:50.606Z,11.90
2019-05-16T20:54:20.423Z,11.70
2019-05-16T20:56:50.560Z,11.70
2019-05-16T20:59:20.547Z,11.60
2019-05-16T21:01:50.371Z,11.50
2019-05-16T21:04:20.351Z,11.40
2019-05-16T21:07:00.191Z,11.30
2019-05-16T21:09:22.416Z,11.30
2019-05-16T21:11:53.086Z,11.20
2019-05-16T21:14:23.097Z,11.10
2019-05-16T21:16:53.167Z,11.00
2019-05-16T21:19:22.890Z,10.90
2019-05-16T21:21:52.631Z,10.90
2019-05-16T21:24:22.377Z,10.90
2019-05-16T21:26:52.270Z,10.70
2019-05-16T21:29:22.285Z,10.70
2019-05-16T21:31:52.826Z,10.50
2019-05-16T21:34:23.126Z,10.40
2019-05-16T21:36:52.786Z,10.20
2019-05-16T21:39:23.102Z,10.10
2019-05-16T21:41:52.844Z,10.10
2019-05-16T21:44:22.654Z,10.00
2019-05-16T21:46:53.542Z,9.90
2019-05-16T21:49:23.767Z,9.70
2019-05-16T21:51:54.115Z,9.70
2019-05-16T21:54:23.838Z,9.60
2019-05-16T21:56:53.842Z,9.60
2019-05-16T21:59:23.585Z,9.60
2019-05-16T22:01:53.412Z,9.40
2019-05-16T22:04:23.210Z,9.30
2019-05-16T22:06:53.046Z,9.40
2019-05-16T22:09:22.783Z,9.30
2019-05-16T22:11:52.705Z,9.20
2019-05-16T22:14:27.597Z,9.20
2019-05-16T22:16:57.502Z,9.10
2019-05-16T22:19:27.336Z,9.10
2019-05-16T22:21:58.512Z,9.10
2019-05-16T22:24:28.409Z,9.00
2019-05-16T22:26:58.162Z,9.00
2019-05-16T22:29:28.042Z,9.00
2019-05-16T22:31:57.947Z,8.90
2019-05-16T22:34:27.752Z,8.90
2019-05-16T22:36:57.469Z,8.80
2019-05-16T22:39:27.686Z,8.70
2019-05-16T22:41:57.490Z,8.60
2019-05-16T22:44:27.562Z,8.60
2019-05-16T22:46:57.619Z,8.60
2019-05-16T22:49:27.632Z,8.70
2019-05-16T22:51:58.506Z,8.50
2019-05-16T22:54:28.403Z,8.50
2019-05-16T22:56:58.395Z,8.40
2019-05-16T22:59:28.211Z,8.40
2019-05-16T23:01:58.031Z,8.50
2019-05-16T23:04:28.103Z,8.40
2019-05-16T23:06:58.174Z,8.40
2019-05-16T23:09:28.187Z,8.40
2019-05-16T23:11:58.171Z,8.30
2019-05-16T23:14:27.998Z,8.30
2019-05-16T23:16:57.987Z,8.40
2019-05-16T23:19:28.058Z,8.30
2019-05-16T23:21:58.378Z,8.30
2019-05-16T23:24:28.194Z,8.40
2019-05-16T23:26:57.850Z,8.50
2019-05-16T23:29:27.951Z,8.50
2019-05-16T23:31:57.750Z,8.50
2019-05-16T23:34:27.640Z,8.50
2019-05-16T23:36:57.521Z,8.40
2019-05-16T23:39:27.352Z,8.30
2019-05-16T23:41:57.235Z,8.30
2019-05-16T23:44:27.357Z,8.20
2019-05-16T23:46:57.439Z,8.20
2019-05-16T23:49:27.603Z,8.10
2019-05-16T23:51:57.380Z,8.00
2019-05-16T23:54:27.910Z,8.00
2019-05-16T23:56:58.383Z,8.00
2019-05-16T23:59:28.230Z,8.00
